sensor_id;sensor_type;location;lat;lon;timestamp;P1;durP1;ratioP1;P2;durP2;ratioP2
315;SDS011;14128;48.686;9.738;2024-02-15T00:00:51;7.77;;;5.87;;
315;SDS011;14128;48.686;9.738;2024-02-15T00:03:18;6.30;;;4.47;;
315;SDS011;14128;48.686;9.738;2024-02-15T00:05:46;7.30;;;6.73;;
315;SDS011;14128;48.686;9.738;2024-02-15T00:08:13;5.13;;;4.50;;
315;SDS011;14128;48.686;9.738;2024-02-15T00:10:42;8.10;;;4.57;;
315;SDS011;14128;48.686;9.738;2024-02-15T00:13:11;5.27;;;4.57;;
315;SDS011;14128;48.686;9.738;2024-02-15T00:15:38;7.20;;;4.07;;
315;SDS011;14128;48.686;9.738;2024-02-15T00:18:05;5.77;;;4.00;;
315;SDS011;14128;48.686;9.738;2024-02-15T00:20:33;5.77;;;3.60;;
315;SDS011;14128;48.686;9.738;2024-02-15T00:23:00;5.93;;;4.30;;
315;SDS011;14128;48.686;9.738;2024-02-15T00:25:27;6.17;;;4.30;;
315;SDS011;14128;48.686;9.738;2024-02-15T00:27:57;4.70;;;3.33;;
315;SDS011;14128;48.686;9.738;2024-02-15T00:30:25;5.63;;;3.73;;
315;SDS011;14128;48.686;9.738;2024-02-15T00:32:53;5.50;;;4.10;;
315;SDS011;14128;48.686;9.738;2024-02-15T00:35:20;4.57;;;3.63;;
315;SDS011;14128;48.686;9.738;2024-02-15T00:37:47;4.07;;;3.90;;
315;SDS011;14128;48.686;9.738;2024-02-15T00:40:15;5.43;;;4.10;;
315;SDS011;14128;48.686;9.738;2024-02-15T00:42:43;5.23;;;3.83;;
315;SDS011;14128;48.686;9.738;2024-02-15T00:45:11;7.20;;;4.70;;
315;SDS011;14128;48.686;9.738;2024-02-15T00:47:38;5.73;;;4.13;;
315;SDS011;14128;48.686;9.738;2024-02-15T00:50:07;5.80;;;4.70;;
315;SDS011;14128;48.686;9.738;2024-02-15T00:52:34;6.77;;;3.93;;
315;SDS011;14128;48.686;9.738;2024-02-15T00:55:02;4.87;;;4.03;;
315;SDS011;14128;48.686;9.738;2024-02-15T00:57:29;6.20;;;4.40;;
315;SDS011;14128;48.686;9.738;2024-02-15T00:59:56;8.10;;;4.43;;
315;SDS011;14128;48.686;9.738;2024-02-15T01:02:25;4.53;;;3.40;;
315;SDS011;14128;48.686;9.738;2024-02-15T01:04:53;6.90;;;4.13;;
315;SDS011;14128;48.686;9.738;2024-02-15T01:07:22;6.20;;;3.90;;
315;SDS011;14128;48.686;9.738;2024-02-15T01:09:52;5.97;;;3.37;;
315;SDS011;14128;48.686;9.738;2024-02-15T01:12:19;5.57;;;4.13;;
315;SDS011;14128;48.686;9.738;2024-02-15T01:14:46;3.70;;;3.50;;
315;SDS011;14128;48.686;9.738;2024-02-15T01:17:14;6.23;;;3.90;;
315;SDS011;14128;48.686;9.738;2024-02-15T01:19:43;4.83;;;3.60;;
315;SDS011;14128;48.686;9.738;2024-02-15T01:22:10;4.90;;;3.47;;
315;SDS011;14128;48.686;9.738;2024-02-15T01:24:37;7.07;;;3.37;;
315;SDS011;14128;48.686;9.738;2024-02-15T01:27:04;4.20;;;3.20;;
315;SDS011;14128;48.686;9.738;2024-02-15T01:29:32;4.47;;;3.23;;
315;SDS011;14128;48.686;9.738;2024-02-15T01:31:59;5.20;;;3.60;;
315;SDS011;14128;48.686;9.738;2024-02-15T01:34:27;5.30;;;3.50;;
315;SDS011;14128;48.686;9.738;2024-02-15T01:36:56;4.43;;;3.07;;
315;SDS011;14128;48.686;9.738;2024-02-15T01:39:23;3.97;;;2.70;;
315;SDS011;14128;48.686;9.738;2024-02-15T01:41:50;5.20;;;3.30;;
315;SDS011;14128;48.686;9.738;2024-02-15T01:44:20;4.00;;;3.10;;
315;SDS011;14128;48.686;9.738;2024-02-15T01:46:50;4.90;;;3.57;;
315;SDS011;14128;48.686;9.738;2024-02-15T01:49:19;5.97;;;2.97;;
315;SDS011;14128;48.686;9.738;2024-02-15T01:51:47;5.87;;;3.50;;
315;SDS011;14128;48.686;9.738;2024-02-15T01:54:16;6.53;;;3.50;;
315;SDS011;14128;48.686;9.738;2024-02-15T01:56:43;4.30;;;3.57;;
315;SDS011;14128;48.686;9.738;2024-02-15T01:59:10;4.47;;;2.83;;
315;SDS011;14128;48.686;9.738;2024-02-15T02:01:39;3.80;;;3.40;;
315;SDS011;14128;48.686;9.738;2024-02-15T02:04:06;3.60;;;3.13;;
315;SDS011;14128;48.686;9.738;2024-02-15T02:06:33;5.03;;;3.60;;
315;SDS011;14128;48.686;9.738;2024-02-15T02:09:00;4.03;;;3.20;;
315;SDS011;14128;48.686;9.738;2024-02-15T02:11:29;4.07;;;3.50;;
315;SDS011;14128;48.686;9.738;2024-02-15T02:13:56;3.67;;;2.10;;
315;SDS011;14128;48.686;9.738;2024-02-15T02:16:24;5.50;;;3.90;;
315;SDS011;14128;48.686;9.738;2024-02-15T02:18:52;3.53;;;2.93;;
315;SDS011;14128;48.686;9.738;2024-02-15T02:21:19;3.37;;;3.17;;
315;SDS011;14128;48.686;9.738;2024-02-15T02:23:46;4.07;;;2.67;;
315;SDS011;14128;48.686;9.738;2024-02-15T02:26:18;4.53;;;3.10;;
315;SDS011;14128;48.686;9.738;2024-02-15T02:28:46;6.43;;;3.30;;
315;SDS011;14128;48.686;9.738;2024-02-15T02:31:13;6.30;;;2.77;;
315;SDS011;14128;48.686;9.738;2024-02-15T02:33:41;4.20;;;3.80;;
315;SDS011;14128;48.686;9.738;2024-02-15T02:36:08;4.80;;;3.30;;
315;SDS011;14128;48.686;9.738;2024-02-15T02:38:37;3.10;;;2.90;;
315;SDS011;14128;48.686;9.738;2024-02-15T02:41:05;3.30;;;3.10;;
315;SDS011;14128;48.686;9.738;2024-02-15T02:43:33;10.30;;;3.40;;
315;SDS011;14128;48.686;9.738;2024-02-15T02:46:00;3.60;;;2.60;;
315;SDS011;14128;48.686;9.738;2024-02-15T02:48:29;3.90;;;3.43;;
315;SDS011;14128;48.686;9.738;2024-02-15T02:50:57;5.77;;;3.23;;
315;SDS011;14128;48.686;9.738;2024-02-15T02:53:24;3.57;;;3.17;;
315;SDS011;14128;48.686;9.738;2024-02-15T02:55:51;3.23;;;3.03;;
315;SDS011;14128;48.686;9.738;2024-02-15T02:58:18;9.53;;;3.10;;
315;SDS011;14128;48.686;9.738;2024-02-15T03:00:47;5.50;;;4.03;;
315;SDS011;14128;48.686;9.738;2024-02-15T03:03:14;8.43;;;4.20;;
315;SDS011;14128;48.686;9.738;2024-02-15T03:05:41;5.70;;;4.10;;
315;SDS011;14128;48.686;9.738;2024-02-15T03:08:09;4.93;;;4.13;;
315;SDS011;14128;48.686;9.738;2024-02-15T03:10:37;5.63;;;3.53;;
315;SDS011;14128;48.686;9.738;2024-02-15T03:13:05;2.77;;;2.53;;
315;SDS011;14128;48.686;9.738;2024-02-15T03:15:33;5.43;;;2.87;;
315;SDS011;14128;48.686;9.738;2024-02-15T03:18:02;3.07;;;2.90;;
315;SDS011;14128;48.686;9.738;2024-02-15T03:20:32;3.27;;;2.57;;
315;SDS011;14128;48.686;9.738;2024-02-15T03:23:00;2.93;;;2.50;;
315;SDS011;14128;48.686;9.738;2024-02-15T03:25:27;8.93;;;3.50;;
315;SDS011;14128;48.686;9.738;2024-02-15T03:27:55;6.37;;;3.70;;
315;SDS011;14128;48.686;9.738;2024-02-15T03:30:23;4.80;;;3.47;;
315;SDS011;14128;48.686;9.738;2024-02-15T03:32:50;4.83;;;3.73;;
315;SDS011;14128;48.686;9.738;2024-02-15T03:35:19;3.50;;;3.03;;
315;SDS011;14128;48.686;9.738;2024-02-15T03:37:47;3.33;;;3.13;;
315;SDS011;14128;48.686;9.738;2024-02-15T03:40:16;5.20;;;2.67;;
315;SDS011;14128;48.686;9.738;2024-02-15T03:42:43;6.70;;;3.03;;
315;SDS011;14128;48.686;9.738;2024-02-15T03:45:10;3.93;;;2.77;;
315;SDS011;14128;48.686;9.738;2024-02-15T03:47:37;6.00;;;3.27;;
315;SDS011;14128;48.686;9.738;2024-02-15T03:50:05;6.00;;;2.57;;
315;SDS011;14128;48.686;9.738;2024-02-15T03:52:36;2.30;;;1.90;;
315;SDS011;14128;48.686;9.738;2024-02-15T03:55:03;4.07;;;1.90;;
315;SDS011;14128;48.686;9.738;2024-02-15T03:57:32;2.90;;;2.70;;
315;SDS011;14128;48.686;9.738;2024-02-15T03:59:59;3.07;;;2.47;;
315;SDS011;14128;48.686;9.738;2024-02-15T04:02:26;3.63;;;2.83;;
315;SDS011;14128;48.686;9.738;2024-02-15T04:04:55;3.07;;;2.70;;
315;SDS011;14128;48.686;9.738;2024-02-15T04:07:22;3.60;;;2.20;;
315;SDS011;14128;48.686;9.738;2024-02-15T04:09:53;3.47;;;2.43;;
315;SDS011;14128;48.686;9.738;2024-02-15T04:12:20;4.63;;;3.23;;
315;SDS011;14128;48.686;9.738;2024-02-15T04:14:47;2.73;;;2.13;;
315;SDS011;14128;48.686;9.738;2024-02-15T04:17:16;3.20;;;2.60;;
315;SDS011;14128;48.686;9.738;2024-02-15T04:19:46;4.77;;;3.27;;
315;SDS011;14128;48.686;9.738;2024-02-15T04:22:15;7.67;;;4.40;;
315;SDS011;14128;48.686;9.738;2024-02-15T04:24:42;5.70;;;3.47;;
315;SDS011;14128;48.686;9.738;2024-02-15T04:27:11;5.80;;;3.23;;
315;SDS011;14128;48.686;9.738;2024-02-15T04:29:39;5.30;;;3.17;;
315;SDS011;14128;48.686;9.738;2024-02-15T04:32:06;2.37;;;2.23;;
315;SDS011;14128;48.686;9.738;2024-02-15T04:34:35;4.83;;;2.20;;
315;SDS011;14128;48.686;9.738;2024-02-15T04:37:02;2.50;;;2.33;;
315;SDS011;14128;48.686;9.738;2024-02-15T04:39:32;6.50;;;2.87;;
315;SDS011;14128;48.686;9.738;2024-02-15T04:42:00;7.90;;;3.77;;
315;SDS011;14128;48.686;9.738;2024-02-15T04:44:29;6.03;;;3.70;;
315;SDS011;14128;48.686;9.738;2024-02-15T04:47:00;6.37;;;4.20;;
315;SDS011;14128;48.686;9.738;2024-02-15T04:49:28;9.63;;;3.67;;
315;SDS011;14128;48.686;9.738;2024-02-15T04:51:56;4.37;;;3.00;;
315;SDS011;14128;48.686;9.738;2024-02-15T04:54:23;5.33;;;4.57;;
315;SDS011;14128;48.686;9.738;2024-02-15T04:56:51;4.50;;;3.03;;
315;SDS011;14128;48.686;9.738;2024-02-15T04:59:19;4.10;;;3.00;;
315;SDS011;14128;48.686;9.738;2024-02-15T05:01:52;6.60;;;2.97;;
315;SDS011;14128;48.686;9.738;2024-02-15T05:04:19;4.60;;;3.90;;
315;SDS011;14128;48.686;9.738;2024-02-15T05:06:46;4.13;;;3.20;;
315;SDS011;14128;48.686;9.738;2024-02-15T05:09:13;4.30;;;3.33;;
315;SDS011;14128;48.686;9.738;2024-02-15T05:11:43;6.27;;;3.30;;
315;SDS011;14128;48.686;9.738;2024-02-15T05:14:12;3.67;;;3.47;;
315;SDS011;14128;48.686;9.738;2024-02-15T05:16:44;4.93;;;3.40;;
315;SDS011;14128;48.686;9.738;2024-02-15T05:19:14;4.00;;;3.40;;
315;SDS011;14128;48.686;9.738;2024-02-15T05:21:41;3.63;;;3.30;;
315;SDS011;14128;48.686;9.738;2024-02-15T05:24:09;4.93;;;4.63;;
315;SDS011;14128;48.686;9.738;2024-02-15T05:26:37;5.00;;;4.70;;
315;SDS011;14128;48.686;9.738;2024-02-15T05:29:04;5.47;;;4.80;;
315;SDS011;14128;48.686;9.738;2024-02-15T05:31:31;5.13;;;3.93;;
315;SDS011;14128;48.686;9.738;2024-02-15T05:33:59;5.67;;;3.63;;
315;SDS011;14128;48.686;9.738;2024-02-15T05:36:28;8.50;;;3.60;;
315;SDS011;14128;48.686;9.738;2024-02-15T05:38:55;3.97;;;3.60;;
315;SDS011;14128;48.686;9.738;2024-02-15T05:41:23;7.00;;;3.20;;
315;SDS011;14128;48.686;9.738;2024-02-15T05:43:50;4.30;;;3.60;;
315;SDS011;14128;48.686;9.738;2024-02-15T05:46:18;3.70;;;2.93;;
315;SDS011;14128;48.686;9.738;2024-02-15T05:48:46;4.70;;;3.20;;
315;SDS011;14128;48.686;9.738;2024-02-15T05:51:14;3.80;;;3.60;;
315;SDS011;14128;48.686;9.738;2024-02-15T05:53:43;5.80;;;3.00;;
315;SDS011;14128;48.686;9.738;2024-02-15T05:56:10;5.20;;;3.07;;
315;SDS011;14128;48.686;9.738;2024-02-15T05:58:38;2.77;;;2.60;;
315;SDS011;14128;48.686;9.738;2024-02-15T06:01:06;7.03;;;2.70;;
315;SDS011;14128;48.686;9.738;2024-02-15T06:03:37;4.80;;;2.93;;
315;SDS011;14128;48.686;9.738;2024-02-15T06:06:05;6.80;;;3.50;;
315;SDS011;14128;48.686;9.738;2024-02-15T06:08:33;4.70;;;3.30;;
315;SDS011;14128;48.686;9.738;2024-02-15T06:11:02;6.10;;;4.00;;
315;SDS011;14128;48.686;9.738;2024-02-15T06:13:30;5.93;;;4.23;;
315;SDS011;14128;48.686;9.738;2024-02-15T06:15:57;5.60;;;3.70;;
315;SDS011;14128;48.686;9.738;2024-02-15T06:18:25;8.27;;;3.90;;
315;SDS011;14128;48.686;9.738;2024-02-15T06:20:54;4.80;;;3.90;;
315;SDS011;14128;48.686;9.738;2024-02-15T06:23:22;4.70;;;3.70;;
315;SDS011;14128;48.686;9.738;2024-02-15T06:25:51;5.77;;;4.00;;
315;SDS011;14128;48.686;9.738;2024-02-15T06:28:20;3.33;;;3.00;;
315;SDS011;14128;48.686;9.738;2024-02-15T06:31:01;3.33;;;3.13;;
315;SDS011;14128;48.686;9.738;2024-02-15T06:33:46;6.10;;;3.73;;
315;SDS011;14128;48.686;9.738;2024-02-15T06:36:30;4.30;;;3.33;;
315;SDS011;14128;48.686;9.738;2024-02-15T06:39:15;9.53;;;5.13;;
315;SDS011;14128;48.686;9.738;2024-02-15T06:42:00;8.70;;;5.63;;
315;SDS011;14128;48.686;9.738;2024-02-15T06:44:29;6.87;;;5.63;;
315;SDS011;14128;48.686;9.738;2024-02-15T06:46:56;6.50;;;5.83;;
315;SDS011;14128;48.686;9.738;2024-02-15T06:49:23;10.37;;;6.70;;
315;SDS011;14128;48.686;9.738;2024-02-15T06:51:50;8.87;;;5.80;;
315;SDS011;14128;48.686;9.738;2024-02-15T06:54:18;8.30;;;4.80;;
315;SDS011;14128;48.686;9.738;2024-02-15T06:56:44;7.30;;;4.70;;
315;SDS011;14128;48.686;9.738;2024-02-15T06:59:12;5.40;;;4.57;;
315;SDS011;14128;48.686;9.738;2024-02-15T07:01:41;5.97;;;4.80;;
315;SDS011;14128;48.686;9.738;2024-02-15T07:04:08;8.73;;;4.53;;
315;SDS011;14128;48.686;9.738;2024-02-15T07:06:36;8.30;;;6.63;;
315;SDS011;14128;48.686;9.738;2024-02-15T07:09:03;7.30;;;5.47;;
315;SDS011;14128;48.686;9.738;2024-02-15T07:11:31;7.97;;;5.80;;
315;SDS011;14128;48.686;9.738;2024-02-15T07:13:59;9.40;;;5.80;;
315;SDS011;14128;48.686;9.738;2024-02-15T07:16:26;4.70;;;4.00;;
315;SDS011;14128;48.686;9.738;2024-02-15T07:18:54;6.30;;;4.60;;
315;SDS011;14128;48.686;9.738;2024-02-15T07:21:21;9.70;;;6.13;;
315;SDS011;14128;48.686;9.738;2024-02-15T07:23:52;5.43;;;3.30;;
315;SDS011;14128;48.686;9.738;2024-02-15T07:26:19;3.77;;;3.23;;
315;SDS011;14128;48.686;9.738;2024-02-15T07:28:49;5.07;;;3.67;;
315;SDS011;14128;48.686;9.738;2024-02-15T07:31:17;4.93;;;4.60;;
315;SDS011;14128;48.686;9.738;2024-02-15T07:33:46;4.97;;;4.10;;
315;SDS011;14128;48.686;9.738;2024-02-15T07:36:15;5.97;;;3.53;;
315;SDS011;14128;48.686;9.738;2024-02-15T07:38:44;6.20;;;4.00;;
315;SDS011;14128;48.686;9.738;2024-02-15T07:41:13;6.13;;;3.20;;
315;SDS011;14128;48.686;9.738;2024-02-15T07:43:40;3.43;;;3.20;;
315;SDS011;14128;48.686;9.738;2024-02-15T07:46:11;3.80;;;2.57;;
315;SDS011;14128;48.686;9.738;2024-02-15T07:48:39;5.80;;;2.70;;
315;SDS011;14128;48.686;9.738;2024-02-15T07:51:10;4.70;;;3.10;;
315;SDS011;14128;48.686;9.738;2024-02-15T07:53:38;6.37;;;2.90;;
315;SDS011;14128;48.686;9.738;2024-02-15T07:56:06;5.53;;;3.10;;
315;SDS011;14128;48.686;9.738;2024-02-15T07:58:33;3.33;;;2.43;;
315;SDS011;14128;48.686;9.738;2024-02-15T08:01:00;5.57;;;3.63;;
315;SDS011;14128;48.686;9.738;2024-02-15T08:03:29;12.80;;;4.20;;
315;SDS011;14128;48.686;9.738;2024-02-15T08:05:56;5.57;;;3.07;;
315;SDS011;14128;48.686;9.738;2024-02-15T08:08:23;5.47;;;3.50;;
315;SDS011;14128;48.686;9.738;2024-02-15T08:10:51;5.20;;;2.73;;
315;SDS011;14128;48.686;9.738;2024-02-15T08:13:18;4.23;;;2.77;;
315;SDS011;14128;48.686;9.738;2024-02-15T08:15:47;2.47;;;2.27;;
315;SDS011;14128;48.686;9.738;2024-02-15T08:18:17;4.70;;;2.33;;
315;SDS011;14128;48.686;9.738;2024-02-15T08:20:45;3.80;;;2.90;;
315;SDS011;14128;48.686;9.738;2024-02-15T08:23:12;6.70;;;3.63;;
315;SDS011;14128;48.686;9.738;2024-02-15T08:25:39;5.63;;;3.10;;
315;SDS011;14128;48.686;9.738;2024-02-15T08:28:07;3.23;;;1.93;;
315;SDS011;14128;48.686;9.738;2024-02-15T08:30:36;4.57;;;2.57;;
315;SDS011;14128;48.686;9.738;2024-02-15T08:33:03;6.53;;;2.83;;
315;SDS011;14128;48.686;9.738;2024-02-15T08:35:30;3.53;;;2.20;;
315;SDS011;14128;48.686;9.738;2024-02-15T08:37:58;2.50;;;1.40;;
315;SDS011;14128;48.686;9.738;2024-02-15T08:40:24;3.30;;;1.60;;
315;SDS011;14128;48.686;9.738;2024-02-15T08:42:52;4.93;;;1.37;;
315;SDS011;14128;48.686;9.738;2024-02-15T08:45:22;4.03;;;1.50;;
315;SDS011;14128;48.686;9.738;2024-02-15T08:47:49;6.33;;;3.30;;
315;SDS011;14128;48.686;9.738;2024-02-15T08:50:18;3.23;;;1.93;;
315;SDS011;14128;48.686;9.738;2024-02-15T08:52:47;2.60;;;1.73;;
315;SDS011;14128;48.686;9.738;2024-02-15T08:55:14;1.43;;;1.03;;
315;SDS011;14128;48.686;9.738;2024-02-15T08:57:42;2.27;;;1.80;;
315;SDS011;14128;48.686;9.738;2024-02-15T09:00:10;3.43;;;1.53;;
315;SDS011;14128;48.686;9.738;2024-02-15T09:02:42;2.10;;;1.27;;
315;SDS011;14128;48.686;9.738;2024-02-15T09:05:09;5.13;;;1.87;;
315;SDS011;14128;48.686;9.738;2024-02-15T09:07:39;3.60;;;1.50;;
315;SDS011;14128;48.686;9.738;2024-02-15T09:10:07;2.50;;;1.27;;
315;SDS011;14128;48.686;9.738;2024-02-15T09:12:35;8.53;;;2.30;;
315;SDS011;14128;48.686;9.738;2024-02-15T09:15:04;5.13;;;1.30;;
315;SDS011;14128;48.686;9.738;2024-02-15T09:17:33;3.30;;;1.47;;
315;SDS011;14128;48.686;9.738;2024-02-15T09:20:05;1.60;;;1.30;;
315;SDS011;14128;48.686;9.738;2024-02-15T09:22:33;1.70;;;1.37;;
315;SDS011;14128;48.686;9.738;2024-02-15T09:25:01;3.13;;;1.53;;
315;SDS011;14128;48.686;9.738;2024-02-15T09:27:28;1.70;;;1.60;;
315;SDS011;14128;48.686;9.738;2024-02-15T09:29:55;2.70;;;1.43;;
315;SDS011;14128;48.686;9.738;2024-02-15T09:32:22;2.23;;;1.13;;
315;SDS011;14128;48.686;9.738;2024-02-15T09:34:49;3.40;;;1.80;;
315;SDS011;14128;48.686;9.738;2024-02-15T09:37:17;3.67;;;2.00;;
315;SDS011;14128;48.686;9.738;2024-02-15T09:39:44;4.33;;;1.23;;
315;SDS011;14128;48.686;9.738;2024-02-15T09:42:11;4.70;;;1.30;;
315;SDS011;14128;48.686;9.738;2024-02-15T09:44:37;0.90;;;0.80;;
315;SDS011;14128;48.686;9.738;2024-02-15T09:47:06;4.37;;;0.80;;
315;SDS011;14128;48.686;9.738;2024-02-15T09:49:35;3.83;;;0.80;;
315;SDS011;14128;48.686;9.738;2024-02-15T09:52:04;1.30;;;0.80;;
315;SDS011;14128;48.686;9.738;2024-02-15T09:54:37;2.83;;;0.77;;
315;SDS011;14128;48.686;9.738;2024-02-15T09:57:05;1.03;;;0.60;;
315;SDS011;14128;48.686;9.738;2024-02-15T09:59:33;7.17;;;0.60;;
315;SDS011;14128;48.686;9.738;2024-02-15T10:02:01;0.93;;;0.60;;
315;SDS011;14128;48.686;9.738;2024-02-15T10:04:28;4.27;;;1.77;;
315;SDS011;14128;48.686;9.738;2024-02-15T10:06:55;2.00;;;0.67;;
315;SDS011;14128;48.686;9.738;2024-02-15T10:09:23;2.57;;;0.70;;
315;SDS011;14128;48.686;9.738;2024-02-15T10:11:55;3.67;;;0.60;;
315;SDS011;14128;48.686;9.738;2024-02-15T10:14:23;1.00;;;0.60;;
315;SDS011;14128;48.686;9.738;2024-02-15T10:16:51;1.40;;;0.70;;
315;SDS011;14128;48.686;9.738;2024-02-15T10:19:18;1.70;;;0.50;;
315;SDS011;14128;48.686;9.738;2024-02-15T10:21:50;2.00;;;0.50;;
315;SDS011;14128;48.686;9.738;2024-02-15T10:24:20;1.20;;;0.70;;
315;SDS011;14128;48.686;9.738;2024-02-15T10:26:48;5.07;;;0.83;;
315;SDS011;14128;48.686;9.738;2024-02-15T10:29:17;1.20;;;0.60;;
315;SDS011;14128;48.686;9.738;2024-02-15T10:31:52;2.30;;;0.53;;
315;SDS011;14128;48.686;9.738;2024-02-15T10:34:19;3.47;;;0.60;;
315;SDS011;14128;48.686;9.738;2024-02-15T10:36:46;4.57;;;0.60;;
315;SDS011;14128;48.686;9.738;2024-02-15T10:39:15;1.13;;;0.40;;
315;SDS011;14128;48.686;9.738;2024-02-15T10:41:45;2.50;;;0.87;;
315;SDS011;14128;48.686;9.738;2024-02-15T10:44:18;3.43;;;0.93;;
315;SDS011;14128;48.686;9.738;2024-02-15T10:46:46;1.60;;;0.43;;
315;SDS011;14128;48.686;9.738;2024-02-15T10:49:16;2.00;;;0.80;;
315;SDS011;14128;48.686;9.738;2024-02-15T10:51:44;1.50;;;0.57;;
315;SDS011;14128;48.686;9.738;2024-02-15T10:54:14;1.07;;;0.50;;
315;SDS011;14128;48.686;9.738;2024-02-15T10:56:49;0.90;;;0.50;;
315;SDS011;14128;48.686;9.738;2024-02-15T10:59:23;0.90;;;0.43;;
315;SDS011;14128;48.686;9.738;2024-02-15T11:01:56;2.67;;;0.93;;
315;SDS011;14128;48.686;9.738;2024-02-15T11:04:25;1.40;;;0.93;;
315;SDS011;14128;48.686;9.738;2024-02-15T11:06:57;1.10;;;0.50;;
315;SDS011;14128;48.686;9.738;2024-02-15T11:09:26;2.60;;;0.50;;
315;SDS011;14128;48.686;9.738;2024-02-15T11:11:55;2.27;;;0.60;;
315;SDS011;14128;48.686;9.738;2024-02-15T11:14:24;1.17;;;0.70;;
315;SDS011;14128;48.686;9.738;2024-02-15T11:16:52;1.23;;;0.50;;
315;SDS011;14128;48.686;9.738;2024-02-15T11:22:07;1.53;;;0.40;;
315;SDS011;14128;48.686;9.738;2024-02-15T11:24:36;1.80;;;0.50;;
315;SDS011;14128;48.686;9.738;2024-02-15T11:27:04;3.97;;;0.70;;
315;SDS011;14128;48.686;9.738;2024-02-15T11:29:49;0.90;;;0.47;;
315;SDS011;14128;48.686;9.738;2024-02-15T11:35:10;2.40;;;0.53;;
315;SDS011;14128;48.686;9.738;2024-02-15T11:37:57;3.43;;;1.00;;
315;SDS011;14128;48.686;9.738;2024-02-15T11:40:28;3.33;;;0.70;;
315;SDS011;14128;48.686;9.738;2024-02-15T11:42:55;0.87;;;0.40;;
315;SDS011;14128;48.686;9.738;2024-02-15T11:45:25;2.20;;;1.13;;
315;SDS011;14128;48.686;9.738;2024-02-15T11:47:57;0.90;;;0.70;;
315;SDS011;14128;48.686;9.738;2024-02-15T11:50:27;1.20;;;0.63;;
315;SDS011;14128;48.686;9.738;2024-02-15T11:53:02;2.00;;;0.50;;
315;SDS011;14128;48.686;9.738;2024-02-15T11:55:34;5.27;;;0.80;;
315;SDS011;14128;48.686;9.738;2024-02-15T11:58:02;1.80;;;0.97;;
315;SDS011;14128;48.686;9.738;2024-02-15T12:00:43;1.50;;;0.80;;
315;SDS011;14128;48.686;9.738;2024-02-15T12:03:28;1.20;;;0.60;;
315;SDS011;14128;48.686;9.738;2024-02-15T12:06:16;2.70;;;2.30;;
315;SDS011;14128;48.686;9.738;2024-02-15T12:09:01;7.73;;;3.10;;
315;SDS011;14128;48.686;9.738;2024-02-15T12:11:46;1.43;;;0.90;;
315;SDS011;14128;48.686;9.738;2024-02-15T12:14:31;1.40;;;1.03;;
315;SDS011;14128;48.686;9.738;2024-02-15T12:17:17;1.23;;;0.77;;
315;SDS011;14128;48.686;9.738;2024-02-15T12:20:02;1.20;;;0.70;;
315;SDS011;14128;48.686;9.738;2024-02-15T12:22:35;3.70;;;0.90;;
315;SDS011;14128;48.686;9.738;2024-02-15T12:25:05;2.40;;;1.33;;
315;SDS011;14128;48.686;9.738;2024-02-15T12:27:36;4.17;;;1.00;;
315;SDS011;14128;48.686;9.738;2024-02-15T12:30:04;3.20;;;0.67;;
315;SDS011;14128;48.686;9.738;2024-02-15T12:32:35;1.30;;;0.70;;
315;SDS011;14128;48.686;9.738;2024-02-15T12:35:12;2.07;;;0.93;;
315;SDS011;14128;48.686;9.738;2024-02-15T12:37:41;1.63;;;0.70;;
315;SDS011;14128;48.686;9.738;2024-02-15T12:40:12;1.43;;;1.13;;
315;SDS011;14128;48.686;9.738;2024-02-15T12:42:42;5.07;;;0.90;;
315;SDS011;14128;48.686;9.738;2024-02-15T12:45:14;2.80;;;0.90;;
315;SDS011;14128;48.686;9.738;2024-02-15T12:47:46;4.83;;;1.33;;
315;SDS011;14128;48.686;9.738;2024-02-15T12:50:15;3.07;;;1.63;;
315;SDS011;14128;48.686;9.738;2024-02-15T12:52:42;1.47;;;0.50;;
315;SDS011;14128;48.686;9.738;2024-02-15T12:55:10;1.83;;;0.60;;
315;SDS011;14128;48.686;9.738;2024-02-15T12:57:37;2.57;;;0.90;;
315;SDS011;14128;48.686;9.738;2024-02-15T13:00:06;2.73;;;0.87;;
315;SDS011;14128;48.686;9.738;2024-02-15T13:02:36;1.27;;;0.93;;
315;SDS011;14128;48.686;9.738;2024-02-15T13:05:05;1.17;;;0.70;;
315;SDS011;14128;48.686;9.738;2024-02-15T13:07:33;1.83;;;0.93;;
315;SDS011;14128;48.686;9.738;2024-02-15T13:10:00;2.90;;;1.07;;
315;SDS011;14128;48.686;9.738;2024-02-15T13:12:28;1.37;;;0.87;;
315;SDS011;14128;48.686;9.738;2024-02-15T13:14:55;2.60;;;1.10;;
315;SDS011;14128;48.686;9.738;2024-02-15T13:17:23;4.50;;;1.50;;
315;SDS011;14128;48.686;9.738;2024-02-15T13:19:52;5.97;;;1.40;;
315;SDS011;14128;48.686;9.738;2024-02-15T13:22:28;1.83;;;1.23;;
315;SDS011;14128;48.686;9.738;2024-02-15T13:24:56;3.50;;;0.60;;
315;SDS011;14128;48.686;9.738;2024-02-15T13:27:23;2.70;;;1.00;;
315;SDS011;14128;48.686;9.738;2024-02-15T13:29:50;3.47;;;0.73;;
315;SDS011;14128;48.686;9.738;2024-02-15T13:32:18;1.90;;;0.70;;
315;SDS011;14128;48.686;9.738;2024-02-15T13:34:46;1.60;;;1.03;;
315;SDS011;14128;48.686;9.738;2024-02-15T13:37:17;1.97;;;1.03;;
315;SDS011;14128;48.686;9.738;2024-02-15T13:39:46;2.70;;;1.13;;
315;SDS011;14128;48.686;9.738;2024-02-15T13:42:13;2.50;;;0.90;;
315;SDS011;14128;48.686;9.738;2024-02-15T13:44:41;1.70;;;0.87;;
315;SDS011;14128;48.686;9.738;2024-02-15T13:47:08;1.50;;;0.80;;
315;SDS011;14128;48.686;9.738;2024-02-15T13:49:37;7.13;;;1.43;;
315;SDS011;14128;48.686;9.738;2024-02-15T13:52:04;1.77;;;1.00;;
315;SDS011;14128;48.686;9.738;2024-02-15T13:54:32;2.97;;;1.07;;
315;SDS011;14128;48.686;9.738;2024-02-15T13:57:01;1.20;;;1.00;;
315;SDS011;14128;48.686;9.738;2024-02-15T13:59:28;1.43;;;0.87;;
315;SDS011;14128;48.686;9.738;2024-02-15T14:01:55;3.63;;;1.20;;
315;SDS011;14128;48.686;9.738;2024-02-15T14:04:23;2.57;;;1.47;;
315;SDS011;14128;48.686;9.738;2024-02-15T14:06:53;2.73;;;1.30;;
315;SDS011;14128;48.686;9.738;2024-02-15T14:09:21;1.40;;;1.13;;
315;SDS011;14128;48.686;9.738;2024-02-15T14:11:51;2.50;;;1.00;;
315;SDS011;14128;48.686;9.738;2024-02-15T14:14:20;2.97;;;1.27;;
315;SDS011;14128;48.686;9.738;2024-02-15T14:16:47;1.20;;;0.60;;
315;SDS011;14128;48.686;9.738;2024-02-15T14:19:14;1.13;;;0.97;;
315;SDS011;14128;48.686;9.738;2024-02-15T14:21:42;2.13;;;0.90;;
315;SDS011;14128;48.686;9.738;2024-02-15T14:24:10;4.13;;;0.80;;
315;SDS011;14128;48.686;9.738;2024-02-15T14:26:38;1.97;;;1.03;;
315;SDS011;14128;48.686;9.738;2024-02-15T14:29:05;1.60;;;1.00;;
315;SDS011;14128;48.686;9.738;2024-02-15T14:31:36;2.60;;;1.27;;
315;SDS011;14128;48.686;9.738;2024-02-15T14:34:20;3.47;;;1.50;;
315;SDS011;14128;48.686;9.738;2024-02-15T14:36:50;4.03;;;1.00;;
315;SDS011;14128;48.686;9.738;2024-02-15T14:39:17;4.70;;;1.47;;
315;SDS011;14128;48.686;9.738;2024-02-15T14:41:44;5.90;;;1.33;;
315;SDS011;14128;48.686;9.738;2024-02-15T14:44:11;2.93;;;1.03;;
315;SDS011;14128;48.686;9.738;2024-02-15T14:46:40;4.60;;;1.27;;
315;SDS011;14128;48.686;9.738;2024-02-15T14:49:07;2.00;;;0.70;;
315;SDS011;14128;48.686;9.738;2024-02-15T14:51:34;3.40;;;1.40;;
315;SDS011;14128;48.686;9.738;2024-02-15T14:54:04;6.00;;;1.27;;
315;SDS011;14128;48.686;9.738;2024-02-15T14:56:31;3.60;;;0.80;;
315;SDS011;14128;48.686;9.738;2024-02-15T14:58:59;1.90;;;1.13;;
315;SDS011;14128;48.686;9.738;2024-02-15T15:01:26;2.73;;;0.70;;
315;SDS011;14128;48.686;9.738;2024-02-15T15:03:55;4.40;;;1.17;;
315;SDS011;14128;48.686;9.738;2024-02-15T15:06:23;2.10;;;1.50;;
315;SDS011;14128;48.686;9.738;2024-02-15T15:09:09;5.20;;;1.30;;
315;SDS011;14128;48.686;9.738;2024-02-15T15:11:54;1.93;;;1.33;;
315;SDS011;14128;48.686;9.738;2024-02-15T15:14:39;1.43;;;0.90;;
315;SDS011;14128;48.686;9.738;2024-02-15T15:17:07;1.80;;;1.07;;
315;SDS011;14128;48.686;9.738;2024-02-15T15:19:36;1.20;;;1.10;;
315;SDS011;14128;48.686;9.738;2024-02-15T15:22:03;4.13;;;1.70;;
315;SDS011;14128;48.686;9.738;2024-02-15T15:24:32;2.00;;;1.50;;
315;SDS011;14128;48.686;9.738;2024-02-15T15:26:59;2.43;;;1.43;;
315;SDS011;14128;48.686;9.738;2024-02-15T15:29:26;14.17;;;5.20;;
315;SDS011;14128;48.686;9.738;2024-02-15T15:31:55;4.63;;;1.87;;